createdAt,value
2019-02-14T00:01:05.787Z,51.43
2019-02-14T00:03:38.028Z,49.10
2019-02-14T00:06:10.637Z,50.57
2019-02-14T00:08:42.079Z,48.60
2019-02-14T00:11:13.898Z,49.53
2019-02-14T00:13:45.383Z,59.80
2019-02-14T00:16:17.290Z,65.70
2019-02-14T00:18:48.707Z,49.70
2019-02-14T00:21:20.188Z,54.93
2019-02-14T00:23:53.108Z,51.03
2019-02-14T00:26:25.737Z,60.23
2019-02-14T00:28:57.067Z,49.93
2019-02-14T00:31:28.690Z,71.03
2019-02-14T00:34:01.234Z,56.03
2019-02-14T00:36:33.790Z,47.87
2019-02-14T00:39:05.732Z,50.10
2019-02-14T00:41:38.975Z,49.97
2019-02-14T00:44:10.663Z,58.37
2019-02-14T00:46:42.167Z,49.97
2019-02-14T00:49:16.135Z,50.63
2019-02-14T00:51:47.762Z,52.30
2019-02-14T00:54:19.233Z,50.97
2019-02-14T00:56:51.911Z,48.80
2019-02-14T00:59:23.357Z,50.93
2019-02-14T01:01:56.354Z,55.63
2019-02-14T01:04:29.342Z,50.77
2019-02-14T01:07:01.320Z,52.27
2019-02-14T01:09:33.677Z,52.70
2019-02-14T01:12:06.353Z,53.23
2019-02-14T01:14:39.276Z,52.10
2019-02-14T01:17:11.763Z,55.53
2019-02-14T01:19:44.035Z,54.13
2019-02-14T01:22:17.933Z,53.87
2019-02-14T01:24:50.013Z,57.40
2019-02-14T01:27:21.809Z,53.10
2019-02-14T01:29:55.492Z,52.90
2019-02-14T01:32:27.062Z,58.17
2019-02-14T01:34:58.714Z,54.83
2019-02-14T01:37:30.897Z,55.70
2019-02-14T01:40:02.270Z,53.53
2019-02-14T01:42:34.084Z,54.20
2019-02-14T01:45:06.474Z,50.47
2019-02-14T01:47:37.841Z,52.13
2019-02-14T01:50:11.891Z,53.27
2019-02-14T01:52:43.472Z,54.67
2019-02-14T01:55:14.953Z,52.90
2019-02-14T01:57:46.598Z,55.33
2019-02-14T02:00:19.851Z,54.80
2019-02-14T02:02:52.317Z,55.27
2019-02-14T02:05:24.879Z,63.17
2019-02-14T02:07:56.675Z,51.67
2019-02-14T02:10:27.975Z,53.03
2019-02-14T02:12:59.108Z,51.77
2019-02-14T02:15:30.211Z,52.90
2019-02-14T02:18:01.633Z,52.83
2019-02-14T02:20:33.554Z,54.07
2019-02-14T02:23:06.214Z,50.93
2019-02-14T02:25:43.459Z,50.23
2019-02-14T02:28:15.306Z,52.00
2019-02-14T02:30:46.410Z,53.03
2019-02-14T02:33:17.997Z,55.93
2019-02-14T02:35:49.617Z,51.63
2019-02-14T02:38:20.865Z,52.40
2019-02-14T02:40:54.257Z,51.57
2019-02-14T02:43:25.708Z,50.93
2019-02-14T02:45:59.080Z,51.43
2019-02-14T02:48:30.554Z,50.27
2019-02-14T02:51:02.096Z,53.87
2019-02-14T02:53:33.960Z,57.20
2019-02-14T02:56:07.038Z,50.43
2019-02-14T02:58:40.552Z,54.20
2019-02-14T03:01:12.028Z,51.20
2019-02-14T03:03:43.609Z,52.37
2019-02-14T03:06:15.025Z,56.10
2019-02-14T03:08:46.671Z,52.63
2019-02-14T03:11:18.118Z,49.23
2019-02-14T03:13:49.698Z,50.70
2019-02-14T03:16:21.315Z,51.60
2019-02-14T03:18:53.787Z,51.97
2019-02-14T03:21:27.061Z,51.30
2019-02-14T03:23:58.702Z,51.90
2019-02-14T03:26:30.242Z,50.73
2019-02-14T03:29:01.781Z,55.63
2019-02-14T03:31:33.298Z,53.43
2019-02-14T03:34:06.329Z,52.63
2019-02-14T03:36:39.675Z,51.47
2019-02-14T03:39:12.256Z,54.50
2019-02-14T03:41:44.703Z,53.53
2019-02-14T03:44:17.717Z,55.23
2019-02-14T03:46:49.085Z,55.03
2019-02-14T03:49:23.676Z,55.90
2019-02-14T03:51:55.476Z,55.33
2019-02-14T03:54:26.605Z,55.93
2019-02-14T03:56:57.704Z,54.03
2019-02-14T03:59:29.497Z,59.10
2019-02-14T04:02:02.547Z,55.90
2019-02-14T04:04:34.795Z,56.50
2019-02-14T04:07:06.029Z,55.73
2019-02-14T04:09:37.109Z,67.37
2019-02-14T04:12:08.877Z,59.77
2019-02-14T04:14:41.644Z,55.50
2019-02-14T04:17:13.242Z,60.63
2019-02-14T04:19:44.664Z,57.83
2019-02-14T04:22:17.355Z,58.23
2019-02-14T04:24:49.744Z,60.03
2019-02-14T04:27:22.290Z,59.73
2019-02-14T04:29:56.066Z,60.00
2019-02-14T04:32:29.626Z,59.57
2019-02-14T04:35:03.920Z,58.17
2019-02-14T04:37:36.068Z,60.90
2019-02-14T04:40:09.183Z,60.27
2019-02-14T04:42:41.173Z,59.43
2019-02-14T04:45:12.821Z,57.47
2019-02-14T04:47:45.045Z,60.53
2019-02-14T04:50:16.221Z,62.43
2019-02-14T04:52:47.308Z,59.67
2019-02-14T04:55:18.389Z,62.17
2019-02-14T04:57:51.200Z,61.20
2019-02-14T05:00:22.310Z,60.30
2019-02-14T05:02:53.395Z,60.73
2019-02-14T05:05:24.625Z,60.60
2019-02-14T05:07:56.513Z,62.53
2019-02-14T05:10:29.868Z,63.60
2019-02-14T05:13:02.731Z,64.90
2019-02-14T05:15:34.912Z,63.37
2019-02-14T05:18:06.527Z,60.50
2019-02-14T05:20:38.026Z,63.77
2019-02-14T05:23:11.111Z,61.67
2019-02-14T05:25:42.685Z,62.90
2019-02-14T05:28:15.700Z,64.33
2019-02-14T05:30:47.336Z,65.83
2019-02-14T05:33:18.795Z,64.07
2019-02-14T05:35:50.334Z,67.73
2019-02-14T05:38:23.399Z,65.13
2019-02-14T05:40:55.490Z,64.00
2019-02-14T05:43:27.123Z,63.43
2019-02-14T05:46:00.452Z,66.80
2019-02-14T05:48:31.530Z,68.47
2019-02-14T05:51:02.635Z,63.77
2019-02-14T05:53:35.647Z,65.73
2019-02-14T05:56:07.392Z,62.23
2019-02-14T05:58:41.480Z,66.67
2019-02-14T06:01:14.705Z,65.37
2019-02-14T06:03:46.438Z,65.77
2019-02-14T06:06:17.466Z,63.33
2019-02-14T06:08:49.119Z,48.97
2019-02-14T06:11:22.353Z,47.83
2019-02-14T06:13:53.501Z,51.97
2019-02-14T06:16:26.364Z,54.17
2019-02-14T06:18:57.503Z,54.20
2019-02-14T06:21:30.106Z,54.23
2019-02-14T06:24:02.842Z,49.60
2019-02-14T06:26:33.943Z,53.07
2019-02-14T06:29:05.858Z,51.87
2019-02-14T06:31:38.417Z,49.57
2019-02-14T06:34:11.170Z,48.27
2019-02-14T06:36:43.279Z,51.50
2019-02-14T06:39:14.702Z,45.33
2019-02-14T06:41:46.679Z,50.07
2019-02-14T06:44:19.103Z,54.47
2019-02-14T06:46:50.524Z,49.40
2019-02-14T06:49:23.960Z,54.80
2019-02-14T06:51:55.863Z,49.27
2019-02-14T06:54:28.297Z,46.97
2019-02-14T06:57:04.447Z,47.17
2019-02-14T06:59:35.904Z,47.50
2019-02-14T07:02:07.726Z,47.90
2019-02-14T07:04:39.467Z,53.20
2019-02-14T07:07:18.425Z,49.33
2019-02-14T07:09:44.825Z,49.43
2019-02-14T07:12:18.732Z,47.33
2019-02-14T07:14:51.108Z,50.47
2019-02-14T07:17:22.751Z,47.30
2019-02-14T07:19:57.455Z,49.63
2019-02-14T07:22:31.031Z,45.20
2019-02-14T07:25:02.939Z,44.80
2019-02-14T07:27:34.861Z,50.23
2019-02-14T07:30:08.739Z,47.23
2019-02-14T07:32:41.829Z,51.90
2019-02-14T07:35:13.882Z,46.73
2019-02-14T07:37:45.537Z,48.40
2019-02-14T07:40:16.504Z,49.13
2019-02-14T07:42:48.821Z,46.43
2019-02-14T07:45:22.190Z,45.17
2019-02-14T07:47:57.129Z,44.83
2019-02-14T07:50:28.297Z,51.27
2019-02-14T07:52:59.967Z,46.07
2019-02-14T07:55:32.610Z,48.90
2019-02-14T07:58:03.991Z,44.17
2019-02-14T08:00:37.535Z,46.20
2019-02-14T08:03:10.207Z,44.73
2019-02-14T08:05:41.700Z,42.93
2019-02-14T08:08:13.342Z,45.60
2019-02-14T08:10:44.825Z,43.83
2019-02-14T08:13:16.878Z,43.77
2019-02-14T08:15:48.340Z,47.07
2019-02-14T08:18:19.856Z,44.70
2019-02-14T08:20:52.429Z,47.03
2019-02-14T08:23:23.845Z,46.03
2019-02-14T08:25:56.005Z,44.63
2019-02-14T08:28:27.632Z,45.07
2019-02-14T08:31:00.307Z,43.87
2019-02-14T08:33:31.980Z,43.70
2019-02-14T08:36:03.625Z,43.87
2019-02-14T08:38:35.158Z,44.70
2019-02-14T08:41:07.747Z,46.43
2019-02-14T08:43:41.525Z,49.23
2019-02-14T08:46:13.083Z,42.60
2019-02-14T08:48:45.655Z,47.90
2019-02-14T08:51:18.840Z,46.60
2019-02-14T08:53:50.503Z,46.00
2019-02-14T08:56:23.922Z,47.73
2019-02-14T08:58:55.566Z,43.60
2019-02-14T09:01:27.057Z,44.57
2019-02-14T09:03:58.504Z,42.67
2019-02-14T09:06:31.043Z,47.53
2019-02-14T09:09:03.896Z,45.47
2019-02-14T09:11:35.629Z,43.43
2019-02-14T09:14:08.556Z,47.63
2019-02-14T09:16:40.299Z,44.33
2019-02-14T09:19:11.762Z,42.67
2019-02-14T09:21:45.326Z,44.60
2019-02-14T09:24:17.543Z,43.73
2019-02-14T09:26:50.227Z,45.13
2019-02-14T09:29:22.950Z,43.07
2019-02-14T09:31:54.903Z,45.13
2019-02-14T09:34:26.538Z,45.83
2019-02-14T09:36:58.282Z,43.33
2019-02-14T09:39:40.618Z,44.07
2019-02-14T09:42:06.086Z,43.87
2019-02-14T09:44:38.408Z,42.37
2019-02-14T09:47:09.945Z,48.23
2019-02-14T09:49:42.312Z,44.60
2019-02-14T09:52:13.983Z,48.07
2019-02-14T09:54:47.137Z,43.73
2019-02-14T09:57:18.990Z,42.53
2019-02-14T09:59:50.342Z,45.27
2019-02-14T10:02:21.895Z,46.10
2019-02-14T10:04:54.438Z,42.60
2019-02-14T10:07:27.180Z,43.50
2019-02-14T10:09:58.700Z,45.63
2019-02-14T10:12:30.160Z,45.53
2019-02-14T10:15:01.846Z,47.13
2019-02-14T10:17:33.678Z,45.23
2019-02-14T10:20:05.835Z,47.63
2019-02-14T10:22:37.581Z,46.53
2019-02-14T10:25:09.452Z,45.83
2019-02-14T10:27:40.909Z,45.50
2019-02-14T10:30:17.226Z,53.23
2019-02-14T10:32:48.824Z,44.03
2019-02-14T10:35:20.920Z,41.17
2019-02-14T10:37:52.371Z,40.13
2019-02-14T10:40:23.986Z,37.13
2019-02-14T10:42:55.439Z,37.90
2019-02-14T10:45:27.282Z,37.87
2019-02-14T10:47:59.827Z,40.80
2019-02-14T10:50:31.262Z,37.90
2019-02-14T10:53:03.074Z,35.07
2019-02-14T10:55:35.147Z,33.67
2019-02-14T10:58:07.830Z,35.67
2019-02-14T11:00:39.478Z,34.23
2019-02-14T11:03:10.956Z,35.70
2019-02-14T11:05:42.464Z,35.80
2019-02-14T11:08:15.547Z,33.17
2019-02-14T11:10:47.097Z,31.47
2019-02-14T11:13:19.183Z,34.27
2019-02-14T11:15:52.083Z,32.77
2019-02-14T11:18:24.245Z,29.27
2019-02-14T11:20:55.669Z,29.53
2019-02-14T11:23:27.156Z,35.50
2019-02-14T11:25:58.823Z,30.73
2019-02-14T11:28:30.256Z,32.23
2019-02-14T11:31:01.798Z,31.27
2019-02-14T11:33:33.345Z,29.60
2019-02-14T11:36:05.707Z,28.53
2019-02-14T11:38:40.654Z,29.50
2019-02-14T11:41:10.456Z,27.87
2019-02-14T11:43:43.002Z,29.97
2019-02-14T11:46:15.476Z,29.97
2019-02-14T11:48:48.022Z,28.30
2019-02-14T11:51:20.540Z,28.50
2019-02-14T11:53:52.116Z,28.13
2019-02-14T11:56:26.490Z,29.10
2019-02-14T11:58:58.421Z,27.80
2019-02-14T12:01:29.946Z,25.63
2019-02-14T12:04:01.759Z,26.20
2019-02-14T12:06:33.402Z,25.90
2019-02-14T12:09:07.324Z,24.17
2019-02-14T12:11:39.861Z,24.57
2019-02-14T12:14:11.451Z,27.00
2019-02-14T12:16:44.266Z,22.23
2019-02-14T12:19:16.407Z,22.37
2019-02-14T12:21:49.531Z,20.93
2019-02-14T12:24:21.055Z,20.20
2019-02-14T12:26:52.708Z,23.53
2019-02-14T12:29:25.645Z,20.10
2019-02-14T12:31:58.403Z,18.70
2019-02-14T12:34:32.217Z,19.00
2019-02-14T12:37:03.853Z,19.90
2019-02-14T12:39:36.342Z,16.47
2019-02-14T12:42:08.209Z,16.87
2019-02-14T12:44:39.786Z,13.60
2019-02-14T12:47:11.855Z,14.50
2019-02-14T12:49:44.341Z,16.20
2019-02-14T12:52:15.829Z,19.10
2019-02-14T12:54:48.739Z,12.90
2019-02-14T12:57:20.566Z,13.73
2019-02-14T12:59:52.757Z,13.17
2019-02-14T13:02:26.947Z,12.50
2019-02-14T13:05:13.214Z,16.43
2019-02-14T13:07:45.723Z,13.20
2019-02-14T13:10:17.987Z,12.17
2019-02-14T13:12:50.246Z,12.87
2019-02-14T13:15:23.122Z,13.27
2019-02-14T13:17:54.198Z,11.57
2019-02-14T13:20:28.087Z,13.53
2019-02-14T13:23:01.204Z,9.93
2019-02-14T13:25:34.029Z,11.53
2019-02-14T13:28:07.100Z,11.50
2019-02-14T13:30:39.626Z,9.00
2019-02-14T13:33:12.094Z,9.13
2019-02-14T13:35:44.177Z,9.70
2019-02-14T13:38:18.538Z,12.33
2019-02-14T13:40:50.382Z,9.57
2019-02-14T13:43:22.924Z,8.80
2019-02-14T13:46:00.229Z,8.50
2019-02-14T13:48:31.877Z,9.27
2019-02-14T13:51:03.755Z,8.23
2019-02-14T13:53:34.859Z,10.10
2019-02-14T13:56:08.446Z,9.80
2019-02-14T13:58:39.580Z,9.87
2019-02-14T14:01:10.713Z,9.17
2019-02-14T14:03:46.245Z,8.93
2019-02-14T14:06:19.067Z,8.43
2019-02-14T14:08:51.550Z,11.40
2019-02-14T14:11:22.717Z,12.57
2019-02-14T14:13:54.845Z,10.27
2019-02-14T14:16:25.987Z,8.93
2019-02-14T14:19:05.979Z,9.97
2019-02-14T14:21:30.818Z,9.93
2019-02-14T14:24:01.883Z,10.93
2019-02-14T14:26:33.872Z,10.63
2019-02-14T14:29:05.999Z,9.70
2019-02-14T14:31:37.283Z,15.40
2019-02-14T14:34:08.446Z,10.03
2019-02-14T14:36:39.705Z,8.77
2019-02-14T14:39:12.801Z,9.57
2019-02-14T14:41:45.889Z,20.43
2019-02-14T14:44:36.216Z,9.73
2019-02-14T14:47:26.377Z,9.57
2019-02-14T14:49:59.198Z,8.70
2019-02-14T14:52:32.106Z,13.23
2019-02-14T14:55:03.201Z,7.27
2019-02-14T14:57:34.666Z,8.43
2019-02-14T15:00:07.544Z,8.80
2019-02-14T15:02:41.324Z,8.97
2019-02-14T15:05:14.172Z,8.77
2019-02-14T15:07:46.980Z,7.93
2019-02-14T15:10:18.549Z,8.27
2019-02-14T15:12:50.445Z,7.07
2019-02-14T15:15:23.364Z,8.80
2019-02-14T15:17:55.620Z,9.43
2019-02-14T15:20:26.731Z,9.83
2019-02-14T15:22:58.798Z,7.13
2019-02-14T15:25:31.718Z,7.10
2019-02-14T15:28:02.882Z,6.97
2019-02-14T15:30:34.779Z,7.40
2019-02-14T15:33:05.964Z,7.93
2019-02-14T15:35:37.119Z,7.53
2019-02-14T15:38:09.814Z,7.03
2019-02-14T15:40:41.739Z,7.03
2019-02-14T15:43:14.362Z,7.97
2019-02-14T15:45:45.917Z,8.27
2019-02-14T15:48:17.369Z,6.93
2019-02-14T15:50:51.496Z,6.83
2019-02-14T15:53:24.283Z,11.30
2019-02-14T15:55:56.523Z,7.77
2019-02-14T15:58:30.770Z,8.43
2019-02-14T16:01:02.677Z,8.30
2019-02-14T16:03:34.867Z,10.83
2019-02-14T16:06:06.915Z,9.27
2019-02-14T16:08:38.420Z,10.57
2019-02-14T16:11:11.437Z,10.37
2019-02-14T16:13:42.980Z,8.43
2019-02-14T16:16:14.978Z,9.47
2019-02-14T16:18:49.047Z,8.30
2019-02-14T16:21:19.808Z,8.97
2019-02-14T16:23:52.632Z,8.77
2019-02-14T16:26:24.158Z,9.00
2019-02-14T16:28:56.675Z,9.43
2019-02-14T16:31:27.827Z,8.80
2019-02-14T16:33:58.922Z,9.80
2019-02-14T16:36:30.023Z,9.27
2019-02-14T16:39:01.829Z,9.00
2019-02-14T16:41:34.272Z,8.63
2019-02-14T16:44:05.451Z,9.37
2019-02-14T16:46:36.547Z,9.07
2019-02-14T16:49:07.669Z,13.97
2019-02-14T16:51:40.490Z,8.93
2019-02-14T16:54:12.681Z,10.37
2019-02-14T16:56:46.634Z,8.63
2019-02-14T16:59:19.131Z,9.60
2019-02-14T17:01:50.544Z,8.87
2019-02-14T17:04:22.271Z,10.43
2019-02-14T17:06:54.444Z,9.43
2019-02-14T17:09:25.611Z,10.57
2019-02-14T17:11:56.845Z,45.57
2019-02-14T17:14:28.737Z,35.67
2019-02-14T17:17:00.177Z,49.03
2019-02-14T17:19:32.511Z,38.47
2019-02-14T17:22:05.078Z,43.03
2019-02-14T17:24:37.304Z,35.83
2019-02-14T17:27:09.733Z,59.00
2019-02-14T17:29:42.049Z,85.80
2019-02-14T17:32:13.549Z,33.70
2019-02-14T17:34:45.069Z,59.10
2019-02-14T17:37:16.182Z,113.43
2019-02-14T17:39:49.250Z,96.63
2019-02-14T17:42:20.316Z,129.53
2019-02-14T17:44:53.390Z,91.83
2019-02-14T17:47:25.318Z,48.03
2019-02-14T17:49:56.970Z,42.60
2019-02-14T17:52:29.097Z,31.57
2019-02-14T17:55:01.160Z,25.90
2019-02-14T17:57:32.296Z,21.40
2019-02-14T18:00:03.405Z,22.47
2019-02-14T18:02:34.701Z,52.67
2019-02-14T18:05:06.482Z,38.30
2019-02-14T18:07:38.349Z,47.73
2019-02-14T18:10:11.746Z,24.27
2019-02-14T18:12:43.082Z,22.50
2019-02-14T18:15:14.829Z,27.30
2019-02-14T18:17:46.082Z,18.63
2019-02-14T18:20:18.278Z,32.97
2019-02-14T18:22:49.526Z,54.67
2019-02-14T18:25:24.833Z,25.63
2019-02-14T18:27:56.566Z,33.50
2019-02-14T18:30:31.327Z,32.37
2019-02-14T18:33:03.009Z,29.70
2019-02-14T18:35:36.399Z,65.97
2019-02-14T18:38:09.271Z,55.40
2019-02-14T18:40:41.636Z,56.83
2019-02-14T18:43:18.032Z,30.13
2019-02-14T18:45:53.920Z,18.43
2019-02-14T18:48:27.150Z,32.07
2019-02-14T18:50:58.885Z,54.00
2019-02-14T18:53:30.343Z,65.20
2019-02-14T18:56:01.886Z,58.03
2019-02-14T18:58:33.293Z,68.30
2019-02-14T19:01:09.223Z,78.47
2019-02-14T19:03:40.687Z,64.83
2019-02-14T19:06:12.210Z,40.40
2019-02-14T19:08:43.706Z,60.93
2019-02-14T19:11:15.607Z,61.27
2019-02-14T19:13:46.933Z,62.27
2019-02-14T19:16:18.331Z,73.43
2019-02-14T19:18:49.937Z,72.47
2019-02-14T19:21:21.797Z,70.43
2019-02-14T19:23:55.657Z,45.07
2019-02-14T19:26:27.043Z,65.70
2019-02-14T19:28:59.704Z,57.23
2019-02-14T19:31:31.245Z,60.93
2019-02-14T19:34:03.316Z,65.63
2019-02-14T19:36:36.281Z,63.97
2019-02-14T19:39:09.483Z,57.13
2019-02-14T19:41:40.585Z,58.13
2019-02-14T19:44:13.090Z,56.13
2019-02-14T19:46:44.306Z,45.73
2019-02-14T19:49:16.926Z,47.77
2019-02-14T19:51:48.430Z,46.23
2019-02-14T19:54:19.847Z,44.20
2019-02-14T19:56:51.058Z,44.43
2019-02-14T19:59:22.158Z,46.50
2019-02-14T20:01:53.256Z,41.93
2019-02-14T20:04:24.454Z,41.57
2019-02-14T20:06:55.561Z,40.63
2019-02-14T20:09:26.712Z,41.43
2019-02-14T20:12:01.466Z,39.30
2019-02-14T20:14:32.715Z,41.50
2019-02-14T20:17:07.315Z,36.03
2019-02-14T20:19:40.893Z,37.17
2019-02-14T20:22:12.157Z,38.80
2019-02-14T20:24:43.613Z,37.20
2019-02-14T20:27:15.352Z,34.77
2019-02-14T20:29:50.543Z,30.93
2019-02-14T20:32:22.672Z,32.90
2019-02-14T20:34:54.465Z,30.97
2019-02-14T20:37:25.865Z,32.83
2019-02-14T20:39:57.374Z,34.60
2019-02-14T20:42:30.609Z,31.97
2019-02-14T20:45:02.125Z,31.43
2019-02-14T20:47:33.810Z,29.40
2019-02-14T20:50:05.371Z,28.00
2019-02-14T20:52:39.342Z,24.60
2019-02-14T20:55:14.628Z,25.23
2019-02-14T20:57:48.097Z,38.10
2019-02-14T21:00:32.859Z,31.23
2019-02-14T21:03:04.848Z,31.27
2019-02-14T21:05:39.815Z,27.87
2019-02-14T21:08:13.726Z,29.17
2019-02-14T21:10:46.309Z,25.23
2019-02-14T21:13:19.266Z,24.80
2019-02-14T21:15:50.960Z,27.83
2019-02-14T21:18:23.798Z,25.77
2019-02-14T21:20:55.449Z,23.30
2019-02-14T21:23:30.508Z,22.83
2019-02-14T21:26:03.457Z,23.67
2019-02-14T21:28:35.859Z,24.43
2019-02-14T21:31:08.196Z,22.10
2019-02-14T21:33:39.588Z,24.53
2019-02-14T21:36:10.894Z,24.37
2019-02-14T21:38:43.018Z,25.33
2019-02-14T21:41:14.560Z,28.07
2019-02-14T21:43:45.632Z,28.17
2019-02-14T21:46:17.650Z,22.43
2019-02-14T21:48:48.759Z,24.60
2019-02-14T21:51:19.835Z,25.53
2019-02-14T21:53:51.275Z,24.83
2019-02-14T21:56:22.734Z,24.43
2019-02-14T21:58:54.066Z,24.53
2019-02-14T22:01:28.466Z,22.07
2019-02-14T22:04:00.278Z,21.50
2019-02-14T22:06:31.718Z,21.93
2019-02-14T22:09:04.540Z,21.10
2019-02-14T22:11:36.243Z,22.93
2019-02-14T22:14:07.837Z,23.50
2019-02-14T22:16:39.329Z,22.03
2019-02-14T22:19:10.944Z,22.10
2019-02-14T22:21:43.080Z,19.53
2019-02-14T22:24:15.500Z,21.80
2019-02-14T22:26:47.087Z,22.90
2019-02-14T22:29:19.802Z,22.67
2019-02-14T22:31:51.255Z,22.43
2019-02-14T22:34:22.685Z,21.67
2019-02-14T22:36:54.362Z,20.73
2019-02-14T22:39:26.446Z,24.43
2019-02-14T22:41:58.086Z,23.50
2019-02-14T22:44:30.300Z,22.70
2019-02-14T22:47:02.715Z,21.13
2019-02-14T22:49:34.550Z,20.07
2019-02-14T22:52:06.668Z,18.67
2019-02-14T22:54:38.189Z,21.13
2019-02-14T22:57:09.671Z,19.17
2019-02-14T22:59:42.391Z,23.43
2019-02-14T23:02:13.991Z,20.60
2019-02-14T23:04:45.710Z,20.27
2019-02-14T23:07:17.669Z,22.63
2019-02-14T23:09:50.374Z,23.47
2019-02-14T23:12:23.376Z,21.50
2019-02-14T23:14:56.210Z,19.73
2019-02-14T23:17:27.293Z,19.17
2019-02-14T23:19:58.810Z,14.73
2019-02-14T23:22:29.967Z,14.63
2019-02-14T23:25:01.070Z,15.37
2019-02-14T23:27:32.160Z,16.00
2019-02-14T23:30:08.490Z,15.33
2019-02-14T23:32:39.573Z,14.50
2019-02-14T23:35:10.765Z,15.70
2019-02-14T23:37:41.873Z,16.27
2019-02-14T23:40:13.559Z,16.57
2019-02-14T23:42:45.231Z,16.63
2019-02-14T23:45:17.146Z,16.00
2019-02-14T23:47:48.409Z,15.93
2019-02-14T23:50:20.354Z,16.20
2019-02-14T23:52:51.432Z,15.57
2019-02-14T23:55:22.537Z,15.43
2019-02-14T23:57:53.673Z,15.17
